Airport View

Enter AWOS ICAO identifier for current METAR.

ex. KFNL

KDMA 080458Z AUTO 33005KT 10SM BKN140 34/08 A2997 RMK AO2 DZB05E15RAB15E16 SLP096 P0000 T03430081 FZRANO $

8 Aug 2020 05:34

Other Area AWOS: KTUS - KRYN - KAVQ - KFHU

TAF KDMA 072201Z 0722/0904 31009KT 9999 SCT150 QNH2991INS TEMPO 0722/0801 25010G16KT BECMG 0802/0803 VRB06KT 9999 SCT130 QNH2995INS BECMG 0819/0820 33005KT 9999 FEW130 QNH2998INS TX40/0723Z TN25/0812Z